createdAt,value
2022-12-04T00:01:28.607Z,100815.59
2022-12-04T00:03:59.707Z,100809.81
2022-12-04T00:06:28.441Z,100812.97
2022-12-04T00:08:56.749Z,100823.16
2022-12-04T00:11:28.565Z,100820.59
2022-12-04T00:14:01.435Z,100816.13
2022-12-04T00:16:32.548Z,100812.75
2022-12-04T00:19:00.112Z,100820.84
2022-12-04T00:21:27.921Z,100809.88
2022-12-04T00:23:55.443Z,100805.41
2022-12-04T00:26:26.552Z,100816.16
2022-12-04T00:28:55.828Z,100820.06
2022-12-04T00:31:26.436Z,100824.25
2022-12-04T00:33:54.574Z,100816.69
2022-12-04T00:36:24.639Z,100818.25
2022-12-04T00:38:53.480Z,100828.97
2022-12-04T00:41:25.829Z,100829.22
2022-12-04T00:43:53.803Z,100827.94
2022-12-04T00:46:22.491Z,100829.50
2022-12-04T00:48:51.047Z,100827.91
2022-12-04T00:51:25.549Z,100823.47
2022-12-04T00:53:54.135Z,100822.69
2022-12-04T00:56:25.900Z,100822.16
2022-12-04T00:58:59.102Z,100824.53
2022-12-04T01:01:28.381Z,100819.81
2022-12-04T01:03:56.715Z,100811.97
2022-12-04T01:06:33.874Z,100814.56
2022-12-04T01:09:04.178Z,100814.84
2022-12-04T01:11:32.430Z,100805.13
2022-12-04T01:14:00.988Z,100813.72
2022-12-04T01:16:35.617Z,100809.59
2022-12-04T01:19:04.024Z,100811.13
2022-12-04T01:21:31.503Z,100809.78
2022-12-04T01:24:00.463Z,100807.22
2022-12-04T01:26:28.290Z,100802.50
2022-12-04T01:28:55.771Z,100804.56
2022-12-04T01:31:26.184Z,100803.56
2022-12-04T01:33:54.112Z,100811.19
2022-12-04T01:36:25.903Z,100807.50
2022-12-04T01:38:54.486Z,100817.19
2022-12-04T01:41:26.736Z,100808.03
2022-12-04T01:44:18.461Z,100813.22
2022-12-04T01:46:52.757Z,100814.28
2022-12-04T01:49:43.937Z,100808.19
2022-12-04T01:52:24.622Z,100813.19
2022-12-04T01:54:58.861Z,100808.50
2022-12-04T01:57:32.174Z,100804.03
2022-12-04T02:00:07.253Z,100792.50
2022-12-04T02:02:39.406Z,100812.88
2022-12-04T02:05:19.729Z,100800.63
2022-12-04T02:07:51.383Z,100799.34
2022-12-04T02:10:24.429Z,100814.03
2022-12-04T02:13:21.513Z,100800.91
2022-12-04T02:16:01.500Z,100801.75
2022-12-04T02:19:04.067Z,100798.34
2022-12-04T02:21:39.369Z,100800.91
2022-12-04T02:24:31.239Z,100796.72
2022-12-04T02:27:41.277Z,100805.63
2022-12-04T02:30:13.440Z,100797.75
2022-12-04T02:33:07.710Z,100793.38
2022-12-04T02:35:47.195Z,100793.88
2022-12-04T02:38:30.701Z,100791.03
2022-12-04T02:41:10.087Z,100799.91
2022-12-04T02:43:55.940Z,100813.53
2022-12-04T02:46:39.471Z,100802.56
2022-12-04T02:49:18.838Z,100798.91
2022-12-04T02:51:50.924Z,100794.69
2022-12-04T02:54:31.787Z,100789.19
2022-12-04T02:57:03.838Z,100795.72
2022-12-04T02:59:37.274Z,100793.13
2022-12-04T03:02:14.667Z,100797.81
2022-12-04T03:04:43.491Z,100799.88
2022-12-04T03:07:25.303Z,100796.47
2022-12-04T03:10:00.756Z,100793.66
2022-12-04T03:12:41.621Z,100796.25
2022-12-04T03:15:39.015Z,100798.34
2022-12-04T03:18:17.521Z,100803.28
2022-12-04T03:20:49.382Z,100796.22
2022-12-04T03:23:27.050Z,100801.97
2022-12-04T03:26:08.163Z,100798.72
2022-12-04T03:28:54.472Z,100800.88
2022-12-04T03:31:35.614Z,100805.59
2022-12-04T03:34:06.922Z,100804.00
2022-12-04T03:36:43.687Z,100803.00
2022-12-04T03:39:33.856Z,100800.91
2022-12-04T03:42:21.024Z,100796.22
2022-12-04T03:45:11.355Z,100801.38
2022-12-04T03:48:27.542Z,100800.91
2022-12-04T03:51:14.787Z,100805.91
2022-12-04T03:53:52.982Z,100796.47
2022-12-04T03:56:29.661Z,100796.16
2022-12-04T03:59:06.953Z,100796.66
2022-12-04T04:01:45.401Z,100805.25
2022-12-04T04:04:22.189Z,100812.31
2022-12-04T04:06:59.611Z,100814.66
2022-12-04T04:09:32.844Z,100814.22
2022-12-04T04:12:23.504Z,100818.63
2022-12-04T04:15:22.683Z,100813.34
2022-12-04T04:18:10.478Z,100811.56
2022-12-04T04:21:03.786Z,100816.28
2022-12-04T04:23:56.676Z,100817.16
2022-12-04T04:26:28.315Z,100813.50
2022-12-04T04:28:55.910Z,100809.28
2022-12-04T04:31:40.051Z,100824.41
2022-12-04T04:34:38.208Z,100821.81
2022-12-04T04:37:27.102Z,100820.25
2022-12-04T04:40:05.222Z,100816.06
2022-12-04T04:42:35.754Z,100815.81
2022-12-04T04:45:16.304Z,100809.72
2022-12-04T04:47:54.900Z,100816.75
2022-12-04T04:50:23.151Z,100817.31
2022-12-04T04:52:58.034Z,100819.72
2022-12-04T04:55:25.804Z,100824.16
2022-12-04T04:57:53.360Z,100832.44
2022-12-04T05:00:22.996Z,100834.81
2022-12-04T05:02:50.637Z,100831.16
2022-12-04T05:05:18.637Z,100839.53
2022-12-04T05:07:46.295Z,100836.41
2022-12-04T05:10:14.106Z,100834.34
2022-12-04T05:12:41.632Z,100831.47
2022-12-04T05:15:10.059Z,100837.69
2022-12-04T05:17:37.919Z,100830.47
2022-12-04T05:20:07.466Z,100821.81
2022-12-04T05:22:37.906Z,100837.22
2022-12-04T05:25:06.332Z,100835.38
2022-12-04T05:27:34.118Z,100840.34
2022-12-04T05:30:01.634Z,100845.56
2022-12-04T05:32:30.674Z,100849.44
2022-12-04T05:34:58.854Z,100849.53
2022-12-04T05:37:26.557Z,100851.84
2022-12-04T05:39:54.643Z,100853.09
2022-12-04T05:42:22.748Z,100857.59
2022-12-04T05:44:50.701Z,100865.75
2022-12-04T05:47:18.464Z,100857.84
2022-12-04T05:49:45.969Z,100856.25
2022-12-04T05:52:13.960Z,100862.53
2022-12-04T05:54:41.494Z,100867.75
2022-12-04T05:57:09.453Z,100867.69
2022-12-04T05:59:37.399Z,100862.97
2022-12-04T06:02:05.732Z,100863.25
2022-12-04T06:04:33.283Z,100853.22
2022-12-04T06:07:00.719Z,100856.38
2022-12-04T06:09:28.184Z,100862.94
2022-12-04T06:11:59.148Z,100855.97
2022-12-04T06:14:26.753Z,100867.19
2022-12-04T06:16:54.431Z,100873.91
2022-12-04T06:19:23.501Z,100887.00
2022-12-04T06:21:54.400Z,100882.59
2022-12-04T06:24:25.546Z,100881.06
2022-12-04T06:27:26.672Z,100873.25
2022-12-04T06:29:45.692Z,100893.63
2022-12-04T06:32:21.236Z,100899.66
2022-12-04T06:34:54.080Z,100899.16
2022-12-04T06:37:25.241Z,100889.25
2022-12-04T06:39:53.788Z,100887.44
2022-12-04T06:42:21.495Z,100890.06
2022-12-04T06:44:49.990Z,100889.56
2022-12-04T06:47:17.477Z,100890.69
2022-12-04T06:49:46.148Z,100890.38
2022-12-04T06:52:13.994Z,100894.78
2022-12-04T06:54:41.604Z,100898.97
2022-12-04T06:57:09.100Z,100898.16
2022-12-04T06:59:37.237Z,100897.34
2022-12-04T07:02:04.870Z,100893.44
2022-12-04T07:04:32.424Z,100891.84
2022-12-04T07:07:00.040Z,100885.09
2022-12-04T07:09:27.596Z,100891.25
2022-12-04T07:11:55.217Z,100892.38
2022-12-04T07:14:22.764Z,100898.16
2022-12-04T07:16:50.658Z,100897.38
2022-12-04T07:19:18.295Z,100894.44
2022-12-04T07:21:45.915Z,100900.75
2022-12-04T07:24:18.360Z,100901.50
2022-12-04T07:26:46.572Z,100898.16
2022-12-04T07:29:14.195Z,100901.06
2022-12-04T07:31:42.001Z,100902.09
2022-12-04T07:34:10.936Z,100902.38
2022-12-04T07:36:40.783Z,100899.25
2022-12-04T07:39:08.584Z,100908.72
2022-12-04T07:41:36.389Z,100903.72
2022-12-04T07:44:07.766Z,100899.28
2022-12-04T07:46:35.898Z,100900.88
2022-12-04T07:49:03.500Z,100895.41
2022-12-04T07:51:31.226Z,100902.97
2022-12-04T07:54:03.211Z,100912.41
2022-12-04T07:56:32.503Z,100912.66
2022-12-04T07:59:00.634Z,100914.00
2022-12-04T08:01:28.933Z,100921.63
2022-12-04T08:03:59.089Z,100915.06
2022-12-04T08:06:29.238Z,100911.66
2022-12-04T08:08:57.591Z,100911.41
2022-12-04T08:11:28.109Z,100911.44
2022-12-04T08:13:59.829Z,100922.69
2022-12-04T08:16:29.727Z,100917.94
2022-12-04T08:18:59.026Z,100912.97
2022-12-04T08:21:30.124Z,100924.22
2022-12-04T08:24:00.068Z,100916.63
2022-12-04T08:26:34.757Z,100914.53
2022-12-04T08:29:04.124Z,100914.56
2022-12-04T08:31:34.696Z,100917.69
2022-12-04T08:34:06.879Z,100918.19
2022-12-04T08:36:35.624Z,100909.03
2022-12-04T08:39:06.503Z,100911.91
2022-12-04T08:41:35.089Z,100919.50
2022-12-04T08:44:04.118Z,100908.22
2022-12-04T08:46:33.056Z,100907.72
2022-12-04T08:49:05.032Z,100905.63
2022-12-04T08:51:38.090Z,100911.09
2022-12-04T08:54:09.586Z,100913.75
2022-12-04T08:56:38.846Z,100906.16
2022-12-04T08:59:09.246Z,100892.56
2022-12-04T09:01:42.278Z,100906.16
2022-12-04T09:04:12.377Z,100903.53
2022-12-04T09:06:41.736Z,100900.13
2022-12-04T09:09:10.393Z,100900.13
2022-12-04T09:11:41.943Z,100884.69
2022-12-04T09:14:10.419Z,100889.94
2022-12-04T09:16:39.147Z,100893.09
2022-12-04T09:19:09.001Z,100894.88
2022-12-04T09:21:39.355Z,100886.25
2022-12-04T09:24:08.847Z,100887.81
2022-12-04T09:26:40.665Z,100882.03
2022-12-04T09:29:09.134Z,100883.41
2022-12-04T09:31:40.642Z,100877.13
2022-12-04T09:34:10.683Z,100878.94
2022-12-04T09:36:38.890Z,100872.63
2022-12-04T09:39:08.647Z,100873.66
2022-12-04T09:41:37.583Z,100874.22
2022-12-04T09:44:42.391Z,100866.91
2022-12-04T09:47:33.310Z,100865.56
2022-12-04T09:50:18.509Z,100858.53
2022-12-04T09:53:01.066Z,100857.22
2022-12-04T09:55:53.968Z,100857.75
2022-12-04T09:58:30.066Z,100850.94
2022-12-04T10:01:01.917Z,100856.97
2022-12-04T10:03:33.179Z,100844.16
2022-12-04T10:06:20.663Z,100838.66
2022-12-04T10:09:29.810Z,100841.00
2022-12-04T10:12:28.960Z,100835.78
2022-12-04T10:16:08.932Z,100836.25
2022-12-04T10:19:12.184Z,100838.91
2022-12-04T10:21:46.654Z,100819.53
2022-12-04T10:24:53.715Z,100824.53
2022-12-04T10:27:46.547Z,100824.78
2022-12-04T10:30:25.201Z,100823.22
2022-12-04T10:33:25.742Z,100822.44
2022-12-04T10:35:58.673Z,100830.81
2022-12-04T10:39:04.554Z,100824.00
2022-12-04T10:41:46.086Z,100816.69
2022-12-04T10:44:18.892Z,100817.19
2022-12-04T10:46:48.246Z,100808.84
2022-12-04T10:49:30.909Z,100805.69
2022-12-04T10:52:01.094Z,100807.25
2022-12-04T10:54:40.764Z,100808.81
2022-12-04T10:57:12.542Z,100806.47
2022-12-04T10:59:55.993Z,100801.00
2022-12-04T11:02:35.066Z,100805.97
2022-12-04T11:05:31.591Z,100795.22
2022-12-04T11:08:04.762Z,100795.75
2022-12-04T11:10:44.232Z,100794.19
2022-12-04T11:13:13.000Z,100791.59
2022-12-04T11:15:54.929Z,100787.13
2022-12-04T11:18:27.800Z,100797.53
2022-12-04T11:21:29.727Z,100789.22
2022-12-04T11:23:59.796Z,100780.06
2022-12-04T11:26:39.128Z,100780.59
2022-12-04T11:29:18.407Z,100770.66
2022-12-04T11:31:54.084Z,100759.66
2022-12-04T11:34:32.237Z,100762.28
2022-12-04T11:37:12.567Z,100761.75
2022-12-04T11:39:44.703Z,100756.50
2022-12-04T11:42:34.191Z,100760.72
2022-12-04T11:45:21.920Z,100759.41
2022-12-04T11:48:19.636Z,100762.53
2022-12-04T11:51:36.863Z,100758.56
2022-12-04T11:54:38.580Z,100753.38
2022-12-04T11:57:25.587Z,100751.28
2022-12-04T12:00:23.716Z,100763.53
2022-12-04T12:03:17.985Z,100769.84
2022-12-04T12:06:31.796Z,100758.34
2022-12-04T12:09:34.316Z,100758.59
2022-12-04T12:12:23.272Z,100758.88
2022-12-04T12:15:51.090Z,100757.59
2022-12-04T12:18:48.711Z,100755.72
2022-12-04T12:21:47.229Z,100748.69
2022-12-04T12:24:44.561Z,100751.03
2022-12-04T12:27:51.620Z,100745.03
2022-12-04T12:30:26.880Z,100740.59
2022-12-04T12:33:23.286Z,100739.25
2022-12-04T12:36:12.405Z,100745.53
2022-12-04T12:39:02.094Z,100746.88
2022-12-04T12:41:55.356Z,100746.06
2022-12-04T12:44:59.127Z,100746.06
2022-12-04T12:47:40.108Z,100741.63
2022-12-04T12:50:44.946Z,100743.16
2022-12-04T12:53:20.867Z,100739.00
2022-12-04T12:55:57.859Z,100728.28
2022-12-04T12:58:51.000Z,100734.56
2022-12-04T13:01:41.320Z,100740.06
2022-12-04T13:04:50.900Z,100740.59
2022-12-04T13:07:35.244Z,100728.28
2022-12-04T13:10:20.160Z,100731.16
2022-12-04T13:13:31.443Z,100736.41
2022-12-04T13:16:11.199Z,100731.69
2022-12-04T13:19:14.244Z,100731.44
2022-12-04T13:21:47.389Z,100750.50
2022-12-04T13:25:16.263Z,100749.47
2022-12-04T13:27:53.795Z,100740.03
2022-12-04T13:30:33.950Z,100733.78
2022-12-04T13:33:32.510Z,100747.38
2022-12-04T13:36:22.455Z,100752.34
2022-12-04T13:39:29.177Z,100744.50
2022-12-04T13:42:24.214Z,100748.16
2022-12-04T13:45:00.697Z,100748.69
2022-12-04T13:47:39.320Z,100759.13
2022-12-04T13:50:17.759Z,100754.97
2022-12-04T13:52:50.648Z,100747.91
2022-12-04T13:55:39.382Z,100760.97
2022-12-04T13:58:21.268Z,100759.41
2022-12-04T14:01:21.158Z,100764.09
2022-12-04T14:04:02.310Z,100771.69
2022-12-04T14:06:41.315Z,100771.94
2022-12-04T14:09:55.521Z,100768.56
2022-12-04T14:12:41.919Z,100765.69
2022-12-04T14:15:26.200Z,100775.88
2022-12-04T14:18:15.940Z,100775.63
2022-12-04T14:20:56.205Z,100773.75
2022-12-04T14:23:42.236Z,100773.78
2022-12-04T14:27:10.176Z,100777.97
2022-12-04T14:29:45.119Z,100780.59
2022-12-04T14:32:43.990Z,100780.03
2022-12-04T14:35:21.283Z,100786.31
2022-12-04T14:38:04.042Z,100774.53
2022-12-04T14:40:43.887Z,100763.56
2022-12-04T14:43:25.846Z,100762.53
2022-12-04T14:46:10.576Z,100770.38
2022-12-04T14:49:19.112Z,100764.88
2022-12-04T14:52:15.286Z,100770.91
2022-12-04T14:55:06.744Z,100780.03
2022-12-04T14:58:30.685Z,100774.84
2022-12-04T15:01:05.951Z,100775.88
2022-12-04T15:03:44.564Z,100771.13
2022-12-04T15:06:24.628Z,100765.34
2022-12-04T15:09:33.886Z,100769.53
2022-12-04T15:12:20.786Z,100774.78
2022-12-04T15:14:50.850Z,100764.63
2022-12-04T15:17:19.499Z,100771.94
2022-12-04T15:19:47.103Z,100770.84
2022-12-04T15:22:27.729Z,100766.94
2022-12-04T15:24:56.692Z,100774.25
2022-12-04T15:27:31.916Z,100774.00
2022-12-04T15:30:02.724Z,100772.47
2022-12-04T15:32:31.225Z,100768.53
2022-12-04T15:35:06.301Z,100766.16
2022-12-04T15:37:34.939Z,100777.69
2022-12-04T15:40:08.243Z,100768.53
2022-12-04T15:42:36.004Z,100765.41
2022-12-04T15:45:24.990Z,100768.03
2022-12-04T15:47:54.793Z,100774.28
2022-12-04T15:50:29.463Z,100776.38
2022-12-04T15:53:17.278Z,100778.47
2022-12-04T15:55:53.001Z,100776.88
2022-12-04T15:58:40.252Z,100771.13
2022-12-04T16:01:12.509Z,100777.16
2022-12-04T16:03:46.126Z,100775.31
2022-12-04T16:06:18.332Z,100775.34
2022-12-04T16:09:13.432Z,100775.59
2022-12-04T16:11:41.962Z,100776.38
2022-12-04T16:14:09.498Z,100775.09
2022-12-04T16:16:43.186Z,100771.41
2022-12-04T16:19:19.841Z,100783.72
2022-12-04T16:21:47.558Z,100782.16
2022-12-04T16:24:17.597Z,100787.91
2022-12-04T16:26:45.115Z,100796.22
2022-12-04T16:29:13.983Z,100794.16
2022-12-04T16:31:41.577Z,100784.47
2022-12-04T16:34:15.062Z,100793.59
2022-12-04T16:37:06.243Z,100804.06
2022-12-04T16:39:36.940Z,100805.38
2022-12-04T16:42:24.628Z,100808.78
2022-12-04T16:44:56.494Z,100813.53
2022-12-04T16:47:30.313Z,100810.91
2022-12-04T16:49:58.734Z,100811.44
2022-12-04T16:52:26.368Z,100822.16
2022-12-04T16:54:54.091Z,100817.66
2022-12-04T16:57:21.702Z,100808.03
2022-12-04T16:59:49.254Z,100807.75
2022-12-04T17:02:26.048Z,100815.31
2022-12-04T17:04:57.479Z,100822.88
2022-12-04T17:07:25.528Z,100818.41
2022-12-04T17:09:53.141Z,100815.25
2022-12-04T17:12:21.973Z,100821.78
2022-12-04T17:14:49.741Z,100822.31
2022-12-04T17:17:20.498Z,100819.44
2022-12-04T17:19:51.447Z,100820.78
2022-12-04T17:22:21.112Z,100832.03
2022-12-04T17:24:57.163Z,100825.50
2022-12-04T17:27:28.109Z,100833.34
2022-12-04T17:29:56.336Z,100831.50
2022-12-04T17:32:24.867Z,100831.84
2022-12-04T17:34:54.893Z,100836.03
2022-12-04T17:37:24.479Z,100830.56
2022-12-04T17:39:53.505Z,100825.53
2022-12-04T17:42:23.831Z,100827.84
2022-12-04T17:44:52.592Z,100831.22
2022-12-04T17:47:24.608Z,100827.06
2022-12-04T17:49:52.820Z,100828.06
2022-12-04T17:52:22.490Z,100824.44
2022-12-04T17:54:51.451Z,100830.75
2022-12-04T17:57:19.767Z,100838.03
2022-12-04T17:59:49.564Z,100833.28
2022-12-04T18:02:18.587Z,100833.00
2022-12-04T18:04:47.773Z,100839.25
2022-12-04T18:07:15.699Z,100836.34
2022-12-04T18:09:43.419Z,100828.06
2022-12-04T18:12:12.467Z,100835.44
2022-12-04T18:14:40.150Z,100834.94
2022-12-04T18:17:07.959Z,100829.69
2022-12-04T18:19:40.512Z,100832.03
2022-12-04T18:22:08.113Z,100830.75
2022-12-04T18:24:35.830Z,100838.03
2022-12-04T18:27:06.901Z,100827.81
2022-12-04T18:29:35.748Z,100827.03
2022-12-04T18:32:03.383Z,100829.66
2022-12-04T18:34:31.493Z,100834.66
2022-12-04T18:36:59.050Z,100833.06
2022-12-04T18:39:29.760Z,100834.69
2022-12-04T18:41:58.124Z,100834.41
2022-12-04T18:44:26.151Z,100832.84
2022-12-04T18:46:53.878Z,100838.03
2022-12-04T18:49:23.410Z,100837.50
2022-12-04T18:51:52.050Z,100833.31
2022-12-04T18:54:27.869Z,100837.47
2022-12-04T18:56:56.731Z,100827.78
2022-12-04T18:59:27.159Z,100827.78
2022-12-04T19:02:02.551Z,100834.88
2022-12-04T19:04:34.662Z,100834.06
2022-12-04T19:07:05.865Z,100831.50
2022-12-04T19:10:09.554Z,100830.41
2022-12-04T19:12:23.065Z,100827.78
2022-12-04T19:14:53.544Z,100829.13
2022-12-04T19:17:23.564Z,100830.75
2022-12-04T19:19:51.825Z,100827.09
2022-12-04T19:22:19.422Z,100832.34
2022-12-04T19:24:49.070Z,100832.88
2022-12-04T19:27:16.767Z,100836.81
2022-12-04T19:29:45.638Z,100842.84
2022-12-04T19:32:15.100Z,100843.56
2022-12-04T19:34:44.591Z,100841.47
2022-12-04T19:37:15.063Z,100843.81
2022-12-04T19:39:47.143Z,100836.47
2022-12-04T19:42:16.790Z,100829.94
2022-12-04T19:44:49.048Z,100823.41
2022-12-04T19:47:19.001Z,100824.69
2022-12-04T19:49:49.958Z,100819.22
2022-12-04T19:52:18.694Z,100816.84
2022-12-04T19:54:48.586Z,100820.25
2022-12-04T19:57:16.642Z,100826.00
2022-12-04T19:59:47.140Z,100831.72
2022-12-04T20:02:19.885Z,100820.22
2022-12-04T20:04:49.445Z,100825.69
2022-12-04T20:07:21.438Z,100825.72
2022-12-04T20:09:52.326Z,100826.75
2022-12-04T20:12:21.734Z,100821.03
2022-12-04T20:14:50.484Z,100823.91
2022-12-04T20:17:18.200Z,100821.28
2022-12-04T20:19:45.863Z,100820.00
2022-12-04T20:22:35.123Z,100819.22
2022-12-04T20:25:03.288Z,100821.56
2022-12-04T20:27:31.653Z,100829.13
2022-12-04T20:29:59.945Z,100825.97
2022-12-04T20:32:30.404Z,100824.72
2022-12-04T20:35:02.775Z,100830.16
2022-12-04T20:37:30.390Z,100828.53
2022-12-04T20:39:58.364Z,100829.81
2022-12-04T20:42:33.087Z,100831.69
2022-12-04T20:45:01.325Z,100832.31
2022-12-04T20:47:29.900Z,100832.03
2022-12-04T20:50:03.277Z,100840.13
2022-12-04T20:52:31.444Z,100848.25
2022-12-04T20:55:02.599Z,100840.72
2022-12-04T20:57:32.920Z,100849.84
2022-12-04T21:00:00.542Z,100845.13
2022-12-04T21:02:32.182Z,100839.06
2022-12-04T21:05:00.835Z,100842.00
2022-12-04T21:07:28.977Z,100833.09
2022-12-04T21:10:01.266Z,100838.78
2022-12-04T21:12:57.340Z,100838.53
2022-12-04T21:15:44.843Z,100840.91
2022-12-04T21:18:12.596Z,100842.97
2022-12-04T21:20:40.199Z,100842.97
2022-12-04T21:23:08.294Z,100840.38
2022-12-04T21:25:37.226Z,100836.94
2022-12-04T21:28:05.827Z,100828.53
2022-12-04T21:30:33.908Z,100837.69
2022-12-04T21:33:03.206Z,100828.78
2022-12-04T21:35:33.759Z,100832.97
2022-12-04T21:38:01.337Z,100833.75
2022-12-04T21:40:28.984Z,100831.16
2022-12-04T21:42:56.444Z,100830.44
2022-12-04T21:45:23.971Z,100829.91
2022-12-04T21:47:52.614Z,100829.13
2022-12-04T21:50:22.754Z,100813.91
2022-12-04T21:52:50.301Z,100814.66
2022-12-04T21:55:17.764Z,100818.66
2022-12-04T21:57:45.300Z,100824.47
2022-12-04T22:00:14.271Z,100818.97
2022-12-04T22:02:41.972Z,100821.81
2022-12-04T22:05:09.909Z,100829.66
2022-12-04T22:07:37.432Z,100825.19
2022-12-04T22:10:10.646Z,100824.94
2022-12-04T22:12:49.551Z,100828.88
2022-12-04T22:15:18.238Z,100826.50
2022-12-04T22:17:48.436Z,100825.19
2022-12-04T22:20:16.783Z,100830.16
2022-12-04T22:22:44.281Z,100824.63
2022-12-04T22:25:11.847Z,100823.34
2022-12-04T22:27:39.313Z,100821.25
2022-12-04T22:30:09.092Z,100828.00
2022-12-04T22:32:36.600Z,100824.63
2022-12-04T22:35:04.399Z,100826.75
2022-12-04T22:37:33.217Z,100828.63
2022-12-04T22:40:00.824Z,100829.09
2022-12-04T22:42:28.423Z,100824.41
2022-12-04T22:44:57.099Z,100822.59
2022-12-04T22:47:24.862Z,100827.53
2022-12-04T22:49:52.363Z,100828.53
2022-12-04T22:52:19.878Z,100817.78
2022-12-04T22:54:47.583Z,100812.84
2022-12-04T22:57:15.242Z,100814.19
2022-12-04T22:59:42.776Z,100807.88
2022-12-04T23:02:11.341Z,100811.75
2022-12-04T23:04:39.138Z,100807.06
2022-12-04T23:07:07.030Z,100811.25
2022-12-04T23:09:34.744Z,100816.72
2022-12-04T23:12:02.650Z,100807.13
2022-12-04T23:14:30.261Z,100810.81
2022-12-04T23:16:57.972Z,100809.25
2022-12-04T23:19:25.653Z,100806.09
2022-12-04T23:21:56.939Z,100808.63
2022-12-04T23:24:25.972Z,100799.22
2022-12-04T23:26:53.631Z,100808.84
2022-12-04T23:32:08.703Z,100795.75
2022-12-04T23:34:36.261Z,100792.88
2022-12-04T23:37:06.373Z,100800.47
2022-12-04T23:39:33.869Z,100792.38
2022-12-04T23:42:01.354Z,100790.34
2022-12-04T23:44:28.882Z,100793.69
2022-12-04T23:46:56.487Z,100792.41
2022-12-04T23:49:24.118Z,100794.78
2022-12-04T23:51:51.643Z,100791.66
2022-12-04T23:54:19.199Z,100784.63
2022-12-04T23:56:46.804Z,100778.63
2022-12-04T23:59:14.346Z,100787.81
